Time;durP1;ratioP1;P1;durP2;ratioP2;P2;SDS_P1;SDS_P2;PMS_P1;PMS_P2;Temp;Humidity;BMP_temperature;BMP_pressure;BME280_temperature;BME280_humidity;BME280_pressure;Samples;Min_cycle;Max_cycle;Signal;HPM_P1;HPM_P2
2024/01/29 06:01:35;;;;;;;23.53;11.07;;;;;;;;;;5426942;23;20635;-76
2024/01/29 06:04:01;;;;;;;28.27;12.87;;;;;;;;;;4953986;29;20420;-75
2024/01/29 06:06:27;;;;;;;31.40;12.87;;;;;;;;;;4953972;29;20505;-76
2024/01/29 06:08:53;;;;;;;27.53;11.90;;;;;;;;;;4953787;29;20455;-75
2024/01/29 06:11:22;;;;;;;25.80;11.20;;;;;;;;;;4953909;28;20425;-76
2024/01/29 06:13:48;;;;;;;28.73;12.80;;;;;;;;;;4954264;29;20506;-75
2024/01/29 06:16:21;;;;;;;16.60;9.40;;;;;;;;;;4954735;29;20417;-75
2024/01/29 06:18:47;;;;;;;23.40;11.40;;;;;;;;;;4955029;28;20773;-75
2024/01/29 06:21:13;;;;;;;19.33;10.83;;;;;;;;;;4956316;28;20424;-75
2024/01/29 06:23:40;;;;;;;21.23;10.80;;;;;;;;;;4955442;29;20423;-75
2024/01/29 06:26:06;;;;;;;20.73;10.67;;;;;;;;;;4955677;28;20413;-74
2024/01/29 06:28:32;;;;;;;23.63;11.03;;;;;;;;;;4953884;29;20429;-75
2024/01/29 06:30:58;;;;;;;17.63;10.00;;;;;;;;;;4956340;28;21021;-76
2024/01/29 06:33:24;;;;;;;20.60;10.53;;;;;;;;;;4956209;29;20471;-75
2024/01/29 06:35:51;;;;;;;18.77;10.50;;;;;;;;;;4955370;28;20935;-76
2024/01/29 06:38:17;;;;;;;22.70;11.53;;;;;;;;;;4954521;28;20412;-76
2024/01/29 06:40:43;;;;;;;19.47;11.00;;;;;;;;;;4953179;28;20482;-77
2024/01/29 06:43:09;;;;;;;18.90;10.77;;;;;;;;;;4954437;29;20927;-75
2024/01/29 06:45:35;;;;;;;18.80;10.60;;;;;;;;;;4952153;29;20507;-77
2024/01/29 06:48:01;;;;;;;25.63;10.47;;;;;;;;;;4955916;29;20416;-75
2024/01/29 06:50:27;;;;;;;25.33;11.33;;;;;;;;;;4953414;29;20521;-74
2024/01/29 06:52:53;;;;;;;22.67;12.13;;;;;;;;;;4953187;29;20813;-77
2024/01/29 06:55:20;;;;;;;18.67;10.40;;;;;;;;;;4953767;29;20425;-76
2024/01/29 06:57:47;;;;;;;24.23;11.10;;;;;;;;;;4953231;28;20420;-75
2024/01/29 07:00:13;;;;;;;29.23;10.27;;;;;;;;;;4953435;29;20420;-75
2024/01/29 07:02:39;;;;;;;18.57;10.60;;;;;;;;;;4952979;29;20942;-76
2024/01/29 07:05:05;;;;;;;17.60;10.90;;;;;;;;;;4953497;29;20425;-74
2024/01/29 07:07:31;;;;;;;28.20;10.27;;;;;;;;;;4955264;29;20425;-77
2024/01/29 07:09:57;;;;;;;21.17;10.77;;;;;;;;;;4966052;29;20433;-75
2024/01/29 07:12:23;;;;;;;23.47;12.30;;;;;;;;;;4956298;29;20527;-72
2024/01/29 07:14:52;;;;;;;20.87;12.40;;;;;;;;;;4953911;29;20424;-73
2024/01/29 07:17:18;;;;;;;23.43;11.57;;;;;;;;;;4953416;28;20500;-73
2024/01/29 07:19:46;;;;;;;25.23;11.37;;;;;;;;;;4953117;29;20499;-76
2024/01/29 07:22:18;;;;;;;29.57;11.00;;;;;;;;;;4951769;28;20485;-74
2024/01/29 07:24:44;;;;;;;31.90;12.40;;;;;;;;;;4953289;28;20499;-75
2024/01/29 07:27:10;;;;;;;27.07;11.40;;;;;;;;;;4953219;29;20449;-73
2024/01/29 07:29:36;;;;;;;27.37;11.93;;;;;;;;;;4951801;29;20449;-73
2024/01/29 07:32:02;;;;;;;38.50;12.70;;;;;;;;;;4953009;29;20440;-72
2024/01/29 07:34:28;;;;;;;20.27;11.20;;;;;;;;;;4953226;29;20527;-74
2024/01/29 07:36:54;;;;;;;28.60;13.83;;;;;;;;;;4953029;29;20495;-71
2024/01/29 07:39:20;;;;;;;30.70;13.17;;;;;;;;;;4952864;29;20425;-71
2024/01/29 07:41:47;;;;;;;23.23;10.93;;;;;;;;;;4953452;28;20440;-74
2024/01/29 07:44:13;;;;;;;27.87;11.27;;;;;;;;;;4956517;29;20421;-73
2024/01/29 07:46:39;;;;;;;22.40;10.27;;;;;;;;;;4956369;29;20995;-73
2024/01/29 07:49:06;;;;;;;27.93;12.33;;;;;;;;;;4954588;29;20924;-75
2024/01/29 07:51:32;;;;;;;20.70;10.37;;;;;;;;;;4941067;29;20983;-74
2024/01/29 07:53:59;;;;;;;21.93;11.60;;;;;;;;;;4945169;29;20464;-74
2024/01/29 07:56:25;;;;;;;18.27;9.80;;;;;;;;;;4952172;28;20885;-74
2024/01/29 07:58:51;;;;;;;20.83;9.83;;;;;;;;;;4936949;29;20413;-76
2024/01/29 08:01:16;;;;;;;25.40;10.50;;;;;;;;;;4945589;29;20446;-76
2024/01/29 08:03:43;;;;;;;30.23;11.03;;;;;;;;;;4939877;29;20829;-75
2024/01/29 08:06:09;;;;;;;21.40;11.63;;;;;;;;;;4951447;29;20436;-77
2024/01/29 08:08:36;;;;;;;32.63;11.93;;;;;;;;;;4959346;29;20421;-76
2024/01/29 08:11:02;;;;;;;24.23;10.70;;;;;;;;;;4959884;28;20444;-76
2024/01/29 08:13:28;;;;;;;28.93;13.07;;;;;;;;;;4957479;29;20813;-74
2024/01/29 08:15:55;;;;;;;20.13;11.13;;;;;;;;;;4960415;29;20449;-77
2024/01/29 08:18:21;;;;;;;30.27;12.40;;;;;;;;;;4959747;29;20921;-75
2024/01/29 08:20:47;;;;;;;31.03;11.90;;;;;;;;;;4956966;29;20496;-75
2024/01/29 08:23:13;;;;;;;26.93;11.47;;;;;;;;;;4955600;29;20487;-75
2024/01/29 08:25:39;;;;;;;28.37;12.93;;;;;;;;;;4955572;29;20452;-76
2024/01/29 08:28:05;;;;;;;22.40;11.77;;;;;;;;;;4955615;29;20412;-76
2024/01/29 08:30:31;;;;;;;30.50;12.90;;;;;;;;;;4955135;29;20440;-76
2024/01/29 08:32:57;;;;;;;19.50;11.03;;;;;;;;;;4938052;29;20461;-75
2024/01/29 08:35:23;;;;;;;26.97;10.63;;;;;;;;;;4942759;29;20507;-73
2024/01/29 08:37:49;;;;;;;21.60;11.40;;;;;;;;;;4954490;29;20425;-77
2024/01/29 08:40:15;;;;;;;19.87;10.57;;;;;;;;;;4954940;28;20428;-76
2024/01/29 08:42:41;;;;;;;18.73;11.47;;;;;;;;;;4955921;29;20427;-77
2024/01/29 08:45:07;;;;;;;17.27;10.33;;;;;;;;;;4954441;29;20429;-77
2024/01/29 08:47:34;;;;;;;20.03;11.13;;;;;;;;;;4954908;29;20432;-75
2024/01/29 08:50:00;;;;;;;24.00;12.23;;;;;;;;;;4939284;29;20425;-75
2024/01/29 08:52:26;;;;;;;21.27;11.40;;;;;;;;;;4946751;28;20971;-77
2024/01/29 08:54:52;;;;;;;22.20;11.60;;;;;;;;;;4935781;29;21044;-77
2024/01/29 08:57:18;;;;;;;25.33;12.63;;;;;;;;;;4954707;29;20431;-77
2024/01/29 08:59:43;;;;;;;21.60;11.77;;;;;;;;;;4944459;29;20476;-76
2024/01/29 09:02:10;;;;;;;17.67;10.43;;;;;;;;;;4955313;29;20452;-76
2024/01/29 09:04:36;;;;;;;21.23;10.70;;;;;;;;;;4954404;29;20962;-75
2024/01/29 09:07:02;;;;;;;23.30;11.30;;;;;;;;;;4956940;29;20424;-77
2024/01/29 09:09:28;;;;;;;20.73;10.20;;;;;;;;;;4957369;29;20425;-77
2024/01/29 09:11:54;;;;;;;28.07;10.40;;;;;;;;;;4955177;29;20995;-77
2024/01/29 09:14:21;;;;;;;23.90;10.80;;;;;;;;;;4962586;29;20464;-77
2024/01/29 09:16:47;;;;;;;18.67;9.17;;;;;;;;;;4964866;28;20488;-77
2024/01/29 09:19:14;;;;;;;13.73;9.40;;;;;;;;;;4956415;29;20781;-76
2024/01/29 09:21:41;;;;;;;21.77;11.07;;;;;;;;;;4955477;28;20451;-76
2024/01/29 09:24:07;;;;;;;16.90;9.87;;;;;;;;;;4938088;28;20763;-77
2024/01/29 09:26:33;;;;;;;23.23;13.20;;;;;;;;;;4948709;29;20507;-77
2024/01/29 09:28:59;;;;;;;24.40;11.03;;;;;;;;;;4953368;29;20435;-77
2024/01/29 09:31:25;;;;;;;24.97;12.60;;;;;;;;;;4954855;29;20572;-77
2024/01/29 09:33:52;;;;;;;25.90;11.70;;;;;;;;;;4955078;29;20463;-76
2024/01/29 09:36:18;;;;;;;32.73;12.77;;;;;;;;;;4954258;29;20809;-77
2024/01/29 09:38:44;;;;;;;21.23;10.73;;;;;;;;;;4954531;29;20417;-77
2024/01/29 09:41:10;;;;;;;20.70;10.40;;;;;;;;;;4949619;29;20452;-77
2024/01/29 09:43:36;;;;;;;18.67;11.40;;;;;;;;;;4954390;29;20420;-76
2024/01/29 09:46:03;;;;;;;22.80;10.97;;;;;;;;;;4954227;29;20435;-76
2024/01/29 09:48:30;;;;;;;17.37;10.07;;;;;;;;;;4954304;28;20529;-77
2024/01/29 09:50:58;;;;;;;25.17;11.30;;;;;;;;;;4954275;28;20448;-76
2024/01/29 09:53:24;;;;;;;23.13;11.30;;;;;;;;;;4954277;29;20460;-77
2024/01/29 09:55:50;;;;;;;21.90;11.63;;;;;;;;;;4953033;29;20435;-77
2024/01/29 09:58:16;;;;;;;23.43;12.03;;;;;;;;;;4954065;29;20417;-77
2024/01/29 10:00:42;;;;;;;21.27;11.07;;;;;;;;;;4953464;29;20459;-75
2024/01/29 10:03:10;;;;;;;19.63;11.57;;;;;;;;;;4954102;29;20512;-77
2024/01/29 10:05:37;;;;;;;22.37;11.00;;;;;;;;;;4953257;28;20428;-77
2024/01/29 10:08:03;;;;;;;25.23;11.43;;;;;;;;;;4954342;29;20416;-76
2024/01/29 10:10:29;;;;;;;19.50;10.47;;;;;;;;;;4954079;29;20428;-77
2024/01/29 10:13:05;;;;;;;17.53;9.80;;;;;;;;;;4954093;29;20456;-77
2024/01/29 10:15:31;;;;;;;19.10;10.93;;;;;;;;;;4953855;29;20412;-75
2024/01/29 10:17:57;;;;;;;14.73;9.27;;;;;;;;;;4953767;29;20476;-76
2024/01/29 10:20:23;;;;;;;19.10;10.23;;;;;;;;;;4953959;29;20889;-75
2024/01/29 10:22:57;;;;;;;19.00;10.00;;;;;;;;;;4954248;28;20417;-76
2024/01/29 10:25:23;;;;;;;20.87;9.63;;;;;;;;;;4949064;29;20473;-77
2024/01/29 10:27:49;;;;;;;16.67;9.33;;;;;;;;;;4935189;29;20889;-77
2024/01/29 10:30:15;;;;;;;16.30;8.93;;;;;;;;;;4935037;29;20418;-77
2024/01/29 10:32:41;;;;;;;14.57;8.70;;;;;;;;;;4954621;29;20951;-78
2024/01/29 10:35:07;;;;;;;14.57;8.60;;;;;;;;;;4953731;29;20468;-77
2024/01/29 10:37:33;;;;;;;20.90;10.10;;;;;;;;;;4952506;29;20425;-77
2024/01/29 10:40:03;;;;;;;20.07;11.53;;;;;;;;;;4938591;29;20420;-77
2024/01/29 10:42:29;;;;;;;19.97;8.33;;;;;;;;;;4953727;29;20480;-77
2024/01/29 10:44:59;;;;;;;18.60;10.30;;;;;;;;;;4953389;29;20419;-75
2024/01/29 10:47:29;;;;;;;14.50;9.03;;;;;;;;;;4943157;29;20496;-76
2024/01/29 10:49:56;;;;;;;20.30;10.67;;;;;;;;;;4943873;29;20424;-77
2024/01/29 10:52:23;;;;;;;18.47;9.93;;;;;;;;;;4951334;29;20476;-77
2024/01/29 10:54:49;;;;;;;19.47;9.80;;;;;;;;;;4948910;29;20429;-77
2024/01/29 10:57:16;;;;;;;16.73;10.30;;;;;;;;;;4947981;29;20916;-76
2024/01/29 10:59:43;;;;;;;17.57;10.27;;;;;;;;;;4953559;29;20889;-76
2024/01/29 11:02:15;;;;;;;17.40;9.13;;;;;;;;;;4947497;29;20484;-77
2024/01/29 11:04:41;;;;;;;19.43;9.53;;;;;;;;;;4954158;28;20807;-77
2024/01/29 11:07:17;;;;;;;14.10;8.50;;;;;;;;;;4947851;29;20428;-78
2024/01/29 11:10:01;;;;;;;22.43;10.30;;;;;;;;;;4951577;29;20412;-77
2024/01/29 11:12:27;;;;;;;19.57;9.53;;;;;;;;;;4949536;29;20447;-76
2024/01/29 11:14:58;;;;;;;20.30;9.20;;;;;;;;;;4955448;29;20503;-77
2024/01/29 11:17:25;;;;;;;15.10;8.90;;;;;;;;;;4957018;28;20748;-74
2024/01/29 11:19:51;;;;;;;17.97;9.57;;;;;;;;;;4957493;29;20449;-75
2024/01/29 11:22:17;;;;;;;15.50;8.60;;;;;;;;;;4953803;29;20441;-77
2024/01/29 11:24:44;;;;;;;19.30;8.23;;;;;;;;;;4949481;29;20432;-77
2024/01/29 11:27:10;;;;;;;17.23;7.93;;;;;;;;;;4949321;29;20900;-74
2024/01/29 11:29:37;;;;;;;12.60;7.97;;;;;;;;;;4951983;29;20422;-74
2024/01/29 11:32:04;;;;;;;12.30;7.70;;;;;;;;;;4947352;29;20448;-74
2024/01/29 11:34:30;;;;;;;13.27;8.33;;;;;;;;;;4956699;28;20495;-75
2024/01/29 11:36:57;;;;;;;15.47;7.40;;;;;;;;;;4956740;29;20467;-74
2024/01/29 11:39:24;;;;;;;12.03;7.57;;;;;;;;;;4956047;28;20416;-75
2024/01/29 11:41:51;;;;;;;15.80;8.00;;;;;;;;;;4956706;28;20523;-74
2024/01/29 11:44:18;;;;;;;25.73;9.90;;;;;;;;;;4956443;29;20850;-74
2024/01/29 11:46:44;;;;;;;16.67;9.07;;;;;;;;;;4956299;28;20513;-74
2024/01/29 11:49:10;;;;;;;29.23;8.93;;;;;;;;;;4954898;29;20452;-74
2024/01/29 11:51:37;;;;;;;18.93;9.77;;;;;;;;;;4956308;29;20852;-74
2024/01/29 11:54:06;;;;;;;14.23;8.37;;;;;;;;;;4938121;29;20460;-75
2024/01/29 11:56:32;;;;;;;14.80;9.27;;;;;;;;;;4941715;29;20413;-74
2024/01/29 11:59:02;;;;;;;23.10;9.27;;;;;;;;;;4954960;29;20532;-73
2024/01/29 12:01:31;;;;;;;18.50;7.97;;;;;;;;;;4955375;29;20499;-72
2024/01/29 12:03:58;;;;;;;19.63;8.50;;;;;;;;;;4956784;28;20425;-75
2024/01/29 12:06:24;;;;;;;17.20;8.70;;;;;;;;;;4942066;29;20461;-74
2024/01/29 12:08:53;;;;;;;13.87;7.77;;;;;;;;;;4935659;29;20505;-75
2024/01/29 12:11:21;;;;;;;16.83;8.20;;;;;;;;;;4936920;29;20854;-74
2024/01/29 12:13:48;;;;;;;16.43;9.20;;;;;;;;;;4937472;29;20473;-76
2024/01/29 12:16:15;;;;;;;17.13;9.20;;;;;;;;;;4936969;29;20414;-76
2024/01/29 12:18:41;;;;;;;13.40;8.70;;;;;;;;;;4937033;29;20472;-76
2024/01/29 12:21:07;;;;;;;17.97;9.70;;;;;;;;;;4937084;29;20437;-75
2024/01/29 12:23:33;;;;;;;20.20;9.60;;;;;;;;;;4937079;29;20421;-76
2024/01/29 12:25:59;;;;;;;19.33;9.27;;;;;;;;;;4937166;29;20752;-76
2024/01/29 12:28:26;;;;;;;20.27;10.30;;;;;;;;;;4956643;28;20440;-75
2024/01/29 12:30:55;;;;;;;17.60;10.77;;;;;;;;;;4957723;28;20992;-75
2024/01/29 12:33:29;;;;;;;20.67;9.90;;;;;;;;;;4955921;28;20457;-76
2024/01/29 12:35:58;;;;;;;19.90;9.87;;;;;;;;;;4956061;28;20441;-76
2024/01/29 12:38:25;;;;;;;25.10;10.37;;;;;;;;;;4954242;29;20420;-77
2024/01/29 12:40:57;;;;;;;17.90;9.10;;;;;;;;;;4957152;28;20441;-74
2024/01/29 12:43:27;;;;;;;17.20;9.10;;;;;;;;;;4948880;29;20504;-75
2024/01/29 12:46:02;;;;;;;14.20;7.87;;;;;;;;;;4940318;29;20472;-75
2024/01/29 12:48:28;;;;;;;21.33;9.33;;;;;;;;;;4944380;28;20829;-75
2024/01/29 12:50:54;;;;;;;20.23;9.50;;;;;;;;;;4937382;29;20476;-75
2024/01/29 12:53:20;;;;;;;15.57;8.10;;;;;;;;;;4953527;29;20826;-75
2024/01/29 12:55:47;;;;;;;21.30;9.03;;;;;;;;;;4953494;28;20417;-75
2024/01/29 12:58:13;;;;;;;19.70;9.23;;;;;;;;;;4955279;28;20413;-76
2024/01/29 13:00:43;;;;;;;18.57;9.33;;;;;;;;;;4955393;29;20445;-75
2024/01/29 13:03:09;;;;;;;20.47;8.63;;;;;;;;;;4955019;29;20516;-75
2024/01/29 13:05:36;;;;;;;13.03;7.80;;;;;;;;;;4957550;29;20451;-75
2024/01/29 13:08:02;;;;;;;16.93;8.03;;;;;;;;;;4956731;28;20428;-75
2024/01/29 13:10:30;;;;;;;16.53;8.10;;;;;;;;;;4955154;29;20436;-75
2024/01/29 13:12:56;;;;;;;14.20;8.60;;;;;;;;;;4956963;28;20552;-76
2024/01/29 13:15:22;;;;;;;16.23;8.90;;;;;;;;;;4955150;29;20429;-77
2024/01/29 13:17:48;;;;;;;22.00;8.17;;;;;;;;;;4955947;29;20417;-76
2024/01/29 13:20:14;;;;;;;18.60;9.20;;;;;;;;;;4955092;29;20413;-77
2024/01/29 13:22:41;;;;;;;15.10;8.87;;;;;;;;;;4954997;29;20471;-77
2024/01/29 13:25:07;;;;;;;18.40;10.10;;;;;;;;;;4954836;28;20503;-77
2024/01/29 13:27:33;;;;;;;17.67;8.00;;;;;;;;;;4951914;29;20421;-75
2024/01/29 13:30:00;;;;;;;15.67;8.17;;;;;;;;;;4945404;29;20452;-74
2024/01/29 13:32:26;;;;;;;17.03;8.67;;;;;;;;;;4954749;28;20495;-77
2024/01/29 13:34:52;;;;;;;33.90;11.17;;;;;;;;;;4953505;29;20558;-75
2024/01/29 13:37:18;;;;;;;16.97;9.20;;;;;;;;;;4952931;29;20453;-76
2024/01/29 13:39:44;;;;;;;14.73;8.73;;;;;;;;;;4953469;28;20753;-76
2024/01/29 13:42:10;;;;;;;15.07;8.20;;;;;;;;;;4935294;29;20437;-76
2024/01/29 13:44:36;;;;;;;18.20;8.47;;;;;;;;;;4935336;29;20440;-77
2024/01/29 13:47:03;;;;;;;17.40;8.23;;;;;;;;;;4936460;29;20481;-77
2024/01/29 13:49:29;;;;;;;13.30;7.40;;;;;;;;;;4951717;29;20433;-77
2024/01/29 13:51:55;;;;;;;16.90;8.80;;;;;;;;;;4955532;28;20447;-77
2024/01/29 13:54:21;;;;;;;18.67;9.53;;;;;;;;;;4954831;29;20570;-77
2024/01/29 13:56:47;;;;;;;17.57;8.30;;;;;;;;;;4954912;29;20405;-77
2024/01/29 13:59:13;;;;;;;20.03;8.57;;;;;;;;;;4954917;29;20408;-77
2024/01/29 14:01:39;;;;;;;17.97;6.63;;;;;;;;;;4954126;29;20972;-76
2024/01/29 14:04:05;;;;;;;20.77;8.13;;;;;;;;;;4954329;29;20429;-76
2024/01/29 14:06:31;;;;;;;13.60;7.60;;;;;;;;;;4954483;28;20416;-77
2024/01/29 14:08:57;;;;;;;17.20;7.37;;;;;;;;;;4952359;28;20436;-78
2024/01/29 14:11:23;;;;;;;25.97;8.30;;;;;;;;;;4936151;28;20521;-77
2024/01/29 14:13:49;;;;;;;19.97;7.97;;;;;;;;;;4942489;29;20473;-77
2024/01/29 14:16:15;;;;;;;16.53;8.40;;;;;;;;;;4939898;29;20475;-72
2024/01/29 14:18:41;;;;;;;15.70;7.70;;;;;;;;;;4953835;28;20423;-74
2024/01/29 14:21:07;;;;;;;16.53;8.20;;;;;;;;;;4953427;28;20437;-79
2024/01/29 14:23:33;;;;;;;16.93;7.77;;;;;;;;;;4947280;28;20428;-79
2024/01/29 14:26:00;;;;;;;25.17;9.13;;;;;;;;;;4959564;29;20436;-79
2024/01/29 14:28:26;;;;;;;23.23;9.23;;;;;;;;;;4945436;28;20426;-77
2024/01/29 14:30:52;;;;;;;11.60;7.17;;;;;;;;;;4935515;29;20449;-78
2024/01/29 14:33:18;;;;;;;17.10;9.47;;;;;;;;;;4934158;29;20508;-75
2024/01/29 14:35:44;;;;;;;16.70;8.90;;;;;;;;;;4949632;29;20429;-78
2024/01/29 14:38:10;;;;;;;16.10;8.33;;;;;;;;;;4952697;29;20421;-77
2024/01/29 14:40:37;;;;;;;25.87;9.23;;;;;;;;;;4939417;28;20938;-79
2024/01/29 14:43:04;;;;;;;27.60;9.57;;;;;;;;;;4956471;29;20640;-78
2024/01/29 14:45:30;;;;;;;21.23;8.50;;;;;;;;;;4948322;29;20515;-78
2024/01/29 14:47:56;;;;;;;30.07;10.60;;;;;;;;;;4955931;28;20499;-78
2024/01/29 14:50:22;;;;;;;25.00;9.20;;;;;;;;;;4954900;28;20427;-78
2024/01/29 14:52:51;;;;;;;19.27;9.23;;;;;;;;;;4949157;29;20421;-78
2024/01/29 14:55:17;;;;;;;26.50;9.27;;;;;;;;;;4947684;29;20430;-78
2024/01/29 14:57:43;;;;;;;18.67;8.30;;;;;;;;;;4967301;29;20419;-77
2024/01/29 15:00:11;;;;;;;22.07;10.20;;;;;;;;;;4957732;28;20586;-77
2024/01/29 15:02:37;;;;;;;13.90;7.13;;;;;;;;;;4948185;29;20436;-78
2024/01/29 15:05:04;;;;;;;26.40;7.47;;;;;;;;;;4938697;29;20418;-77
2024/01/29 15:07:30;;;;;;;24.07;7.30;;;;;;;;;;4939084;29;20421;-78
2024/01/29 15:09:56;;;;;;;14.73;6.73;;;;;;;;;;4938464;29;20424;-77
2024/01/29 15:12:22;;;;;;;18.23;7.90;;;;;;;;;;4938447;29;20437;-77
2024/01/29 15:14:50;;;;;;;24.00;7.70;;;;;;;;;;4956321;29;20515;-78
2024/01/29 15:17:16;;;;;;;13.70;6.70;;;;;;;;;;4961410;29;20423;-77
2024/01/29 15:19:42;;;;;;;10.43;6.80;;;;;;;;;;4942305;29;20477;-79
2024/01/29 15:22:08;;;;;;;15.33;6.90;;;;;;;;;;4938820;29;20430;-79
2024/01/29 15:24:34;;;;;;;13.67;6.80;;;;;;;;;;4939467;29;20818;-78
2024/01/29 15:27:00;;;;;;;13.53;6.73;;;;;;;;;;4937980;29;20572;-77
2024/01/29 15:29:26;;;;;;;17.80;7.27;;;;;;;;;;4942583;29;20421;-78
2024/01/29 15:31:52;;;;;;;14.63;6.60;;;;;;;;;;4959663;28;20459;-78
2024/01/29 15:34:18;;;;;;;15.80;7.27;;;;;;;;;;4954996;29;20466;-78
2024/01/29 15:36:45;;;;;;;15.80;7.00;;;;;;;;;;4957577;28;20444;-79
2024/01/29 15:39:11;;;;;;;24.37;8.40;;;;;;;;;;4957939;29;20416;-80
2024/01/29 15:41:37;;;;;;;15.33;7.17;;;;;;;;;;4957641;28;20437;-79
2024/01/29 15:44:03;;;;;;;25.73;9.00;;;;;;;;;;4958165;29;20440;-79
2024/01/29 15:46:29;;;;;;;13.53;6.93;;;;;;;;;;4960396;29;20421;-78
2024/01/29 15:48:55;;;;;;;15.43;6.90;;;;;;;;;;4959257;29;20501;-78
2024/01/29 15:51:22;;;;;;;19.83;7.40;;;;;;;;;;4962734;29;20433;-79
2024/01/29 15:53:47;;;;;;;20.40;6.93;;;;;;;;;;4961647;28;20456;-79
2024/01/29 15:56:14;;;;;;;17.73;7.70;;;;;;;;;;4959568;29;20472;-77
2024/01/29 15:58:40;;;;;;;16.37;7.77;;;;;;;;;;4957993;28;20436;-76
2024/01/29 16:01:06;;;;;;;14.23;6.60;;;;;;;;;;4950809;29;20456;-77
2024/01/29 16:03:33;;;;;;;14.87;7.30;;;;;;;;;;4953773;28;20445;-78
2024/01/29 16:05:59;;;;;;;16.53;7.80;;;;;;;;;;4950870;29;20418;-76
2024/01/29 16:08:25;;;;;;;20.83;7.27;;;;;;;;;;4938683;29;20489;-77
2024/01/29 16:10:51;;;;;;;20.83;6.50;;;;;;;;;;4937653;29;20468;-77
2024/01/29 16:13:17;;;;;;;13.80;6.30;;;;;;;;;;4937134;29;20836;-77
2024/01/29 16:15:43;;;;;;;17.33;7.67;;;;;;;;;;4937719;29;20442;-77
2024/01/29 16:18:09;;;;;;;13.23;6.60;;;;;;;;;;4937372;29;20827;-77
2024/01/29 16:20:37;;;;;;;23.10;8.17;;;;;;;;;;4937193;29;20433;-77
2024/01/29 16:23:03;;;;;;;29.60;7.70;;;;;;;;;;4937377;29;20450;-77
2024/01/29 16:25:29;;;;;;;18.30;8.27;;;;;;;;;;4937292;29;20429;-77
2024/01/29 16:27:55;;;;;;;22.03;8.43;;;;;;;;;;4936236;29;20433;-77
2024/01/29 16:30:21;;;;;;;20.27;7.27;;;;;;;;;;4937532;29;21045;-77
2024/01/29 16:32:47;;;;;;;23.87;7.30;;;;;;;;;;4935719;29;20425;-77
2024/01/29 16:35:17;;;;;;;16.27;7.90;;;;;;;;;;4936995;29;20894;-76
2024/01/29 16:37:43;;;;;;;16.73;7.10;;;;;;;;;;4936826;29;20426;-77
2024/01/29 16:40:09;;;;;;;18.70;9.73;;;;;;;;;;4944038;29;20516;-76
2024/01/29 16:42:35;;;;;;;14.93;8.13;;;;;;;;;;4955762;29;20975;-77
2024/01/29 16:45:01;;;;;;;18.10;8.13;;;;;;;;;;4955879;29;20444;-76
2024/01/29 16:47:27;;;;;;;18.73;7.83;;;;;;;;;;4955415;28;20423;-77
2024/01/29 16:49:53;;;;;;;16.60;7.23;;;;;;;;;;4956092;28;20866;-77
2024/01/29 16:52:19;;;;;;;15.43;6.70;;;;;;;;;;4947455;29;20500;-76
2024/01/29 16:54:46;;;;;;;23.60;9.77;;;;;;;;;;4937575;29;20556;-78
2024/01/29 16:57:12;;;;;;;29.70;9.33;;;;;;;;;;4937606;29;20502;-75
2024/01/29 16:59:39;;;;;;;29.43;10.13;;;;;;;;;;4946774;29;20468;-74
2024/01/29 17:02:05;;;;;;;18.57;8.87;;;;;;;;;;4953762;28;20520;-74
2024/01/29 17:04:34;;;;;;;28.30;9.40;;;;;;;;;;4955274;28;20510;-75
2024/01/29 17:07:01;;;;;;;29.07;10.27;;;;;;;;;;4956416;28;20413;-75
2024/01/29 17:09:27;;;;;;;22.03;10.20;;;;;;;;;;4955713;28;20413;-74
2024/01/29 17:11:53;;;;;;;26.47;10.50;;;;;;;;;;4957217;29;20495;-74
2024/01/29 17:14:19;;;;;;;31.97;12.30;;;;;;;;;;4956612;28;20936;-75
2024/01/29 17:16:45;;;;;;;28.20;10.63;;;;;;;;;;4956583;29;20496;-75
2024/01/29 17:19:11;;;;;;;41.63;11.30;;;;;;;;;;4942230;29;20422;-74
2024/01/29 17:21:40;;;;;;;32.60;12.63;;;;;;;;;;4936597;29;20430;-74
2024/01/29 17:24:06;;;;;;;26.07;10.83;;;;;;;;;;4936486;29;20940;-74
2024/01/29 17:26:33;;;;;;;33.93;10.70;;;;;;;;;;4936394;29;20430;-74
2024/01/29 17:28:59;;;;;;;21.70;9.60;;;;;;;;;;4936491;29;20472;-75
2024/01/29 17:31:25;;;;;;;21.70;9.37;;;;;;;;;;4936521;29;20441;-76
2024/01/29 17:33:51;;;;;;;18.13;8.73;;;;;;;;;;4950367;29;20475;-74
2024/01/29 17:36:19;;;;;;;20.67;9.67;;;;;;;;;;4952582;28;20409;-77
2024/01/29 17:38:45;;;;;;;20.37;10.50;;;;;;;;;;4949206;29;20416;-79
2024/01/29 17:41:11;;;;;;;28.87;9.57;;;;;;;;;;4949747;29;20804;-78
2024/01/29 17:43:38;;;;;;;35.07;11.60;;;;;;;;;;4935663;29;20473;-76
2024/01/29 17:46:04;;;;;;;26.17;10.87;;;;;;;;;;4935771;29;20410;-75
2024/01/29 17:48:30;;;;;;;24.63;9.50;;;;;;;;;;4935433;29;20462;-76
2024/01/29 17:50:56;;;;;;;34.37;10.50;;;;;;;;;;4946731;29;20469;-76
2024/01/29 17:53:22;;;;;;;28.43;9.00;;;;;;;;;;4935794;29;20980;-77
2024/01/29 17:55:48;;;;;;;34.87;10.13;;;;;;;;;;4943646;28;20420;-76
2024/01/29 17:58:16;;;;;;;24.73;9.90;;;;;;;;;;4952041;28;20410;-77
2024/01/29 18:00:42;;;;;;;29.43;11.40;;;;;;;;;;4946062;28;20488;-76
2024/01/29 18:03:08;;;;;;;24.40;10.13;;;;;;;;;;4955256;29;20432;-78
2024/01/29 18:05:34;;;;;;;26.00;10.60;;;;;;;;;;4949248;29;20421;-76
2024/01/29 18:08:00;;;;;;;33.03;12.37;;;;;;;;;;4938279;29;20813;-77
2024/01/29 18:10:26;;;;;;;30.30;10.60;;;;;;;;;;4944247;29;20451;-76
2024/01/29 18:12:52;;;;;;;30.37;12.90;;;;;;;;;;4953715;29;20436;-76
2024/01/29 18:15:18;;;;;;;27.00;11.00;;;;;;;;;;4995424;23;20634;-78
2024/01/29 18:17:45;;;;;;;33.53;10.50;;;;;;;;;;4971622;28;20420;-78
2024/01/29 18:20:11;;;;;;;35.80;11.30;;;;;;;;;;4974568;28;20427;-78
2024/01/29 18:22:37;;;;;;;38.50;12.73;;;;;;;;;;4971528;28;20420;-73
2024/01/29 18:25:03;;;;;;;27.20;10.93;;;;;;;;;;4955491;28;20447;-73
2024/01/29 18:27:29;;;;;;;31.23;12.77;;;;;;;;;;4946873;28;20417;-77
2024/01/29 18:29:55;;;;;;;30.53;13.60;;;;;;;;;;4950607;29;20433;-78
2024/01/29 18:32:21;;;;;;;22.80;10.73;;;;;;;;;;4949389;29;20461;-77
2024/01/29 18:34:51;;;;;;;38.57;12.37;;;;;;;;;;4955677;28;20483;-77
2024/01/29 18:37:17;;;;;;;27.60;11.53;;;;;;;;;;4944497;29;20937;-77
2024/01/29 18:39:43;;;;;;;50.70;12.70;;;;;;;;;;4946987;29;20421;-78
2024/01/29 18:42:10;;;;;;;28.83;11.23;;;;;;;;;;4936652;29;20501;-78
2024/01/29 18:44:37;;;;;;;33.73;13.60;;;;;;;;;;4956355;28;20440;-78
2024/01/29 18:47:03;;;;;;;25.97;11.50;;;;;;;;;;4957810;29;20451;-78
2024/01/29 18:49:28;;;;;;;34.57;15.30;;;;;;;;;;4943962;29;20433;-77
2024/01/29 18:52:01;;;;;;;34.00;13.10;;;;;;;;;;4947665;29;20447;-79
2024/01/29 18:54:27;;;;;;;28.30;13.50;;;;;;;;;;4945431;29;20502;-78
2024/01/29 18:56:53;;;;;;;31.03;14.30;;;;;;;;;;4943982;29;20426;-78
2024/01/29 18:59:19;;;;;;;27.73;12.33;;;;;;;;;;4950125;29;20480;-78
2024/01/29 19:01:45;;;;;;;32.60;12.27;;;;;;;;;;4948730;28;20425;-78
2024/01/29 19:04:12;;;;;;;28.53;12.70;;;;;;;;;;4952426;29;20440;-77
2024/01/29 19:06:38;;;;;;;27.97;12.23;;;;;;;;;;4953496;29;20479;-78
2024/01/29 19:09:04;;;;;;;28.23;13.23;;;;;;;;;;4950619;29;20426;-77
2024/01/29 19:11:30;;;;;;;31.40;11.23;;;;;;;;;;4954968;29;20424;-75
2024/01/29 19:13:57;;;;;;;26.30;12.00;;;;;;;;;;4941417;28;20473;-72
2024/01/29 19:16:23;;;;;;;34.60;13.40;;;;;;;;;;4939909;29;20418;-75
2024/01/29 19:18:49;;;;;;;22.57;11.93;;;;;;;;;;4946784;29;20423;-77
2024/01/29 19:21:17;;;;;;;26.33;13.00;;;;;;;;;;4954819;28;20417;-78
2024/01/29 19:23:44;;;;;;;31.97;12.20;;;;;;;;;;4952902;28;20456;-78
2024/01/29 19:26:10;;;;;;;32.23;13.53;;;;;;;;;;4949709;29;20434;-77
2024/01/29 19:28:36;;;;;;;29.90;12.97;;;;;;;;;;4948821;29;20429;-77
2024/01/29 19:31:04;;;;;;;34.73;14.47;;;;;;;;;;4945543;28;20929;-77
2024/01/29 19:33:30;;;;;;;31.17;14.60;;;;;;;;;;4953272;28;21115;-78
2024/01/29 19:35:56;;;;;;;35.40;13.73;;;;;;;;;;4953047;29;20424;-78
2024/01/29 19:38:23;;;;;;;25.10;12.20;;;;;;;;;;4938865;29;20429;-78
2024/01/29 19:40:49;;;;;;;31.73;13.57;;;;;;;;;;4947345;29;20884;-78
2024/01/29 19:43:15;;;;;;;31.70;13.43;;;;;;;;;;4959586;28;20523;-78
2024/01/29 19:45:41;;;;;;;31.73;12.07;;;;;;;;;;4962124;28;20817;-78
2024/01/29 19:48:07;;;;;;;29.87;14.27;;;;;;;;;;4948969;28;20785;-77
2024/01/29 19:50:33;;;;;;;29.60;12.83;;;;;;;;;;4943095;29;20485;-77
2024/01/29 19:53:02;;;;;;;34.87;14.50;;;;;;;;;;4957267;29;20406;-77
2024/01/29 19:55:28;;;;;;;30.10;13.07;;;;;;;;;;4944693;29;20949;-78
2024/01/29 19:57:54;;;;;;;32.77;12.53;;;;;;;;;;4937511;29;20422;-75
2024/01/29 20:00:20;;;;;;;27.80;13.07;;;;;;;;;;4936976;29;20441;-74
2024/01/29 20:02:46;;;;;;;29.80;13.20;;;;;;;;;;4938063;29;20410;-78
2024/01/29 20:05:12;;;;;;;29.60;12.80;;;;;;;;;;4947729;29;20446;-78
2024/01/29 20:07:38;;;;;;;33.70;12.63;;;;;;;;;;4933640;29;20406;-72
2024/01/29 20:10:06;;;;;;;28.93;14.20;;;;;;;;;;4932531;29;20505;-72
2024/01/29 20:12:32;;;;;;;25.00;13.43;;;;;;;;;;4938049;29;20500;-72
2024/01/29 20:14:58;;;;;;;35.80;13.83;;;;;;;;;;4936997;29;20488;-72
2024/01/29 20:17:25;;;;;;;29.30;14.50;;;;;;;;;;4938067;29;20414;-79
2024/01/29 20:19:51;;;;;;;35.90;13.67;;;;;;;;;;4952253;29;20417;-79